Quinby, South Carolina
Current Conditions -  °F | °C
As of 2:53 PM on Tuesday 21 Oct 2014 (Local Time) from KFLO Reporting Station
Clear Clear  
Wind Chill: 77°   Ceiling: Unl
Heat Index: 78°   Visibility: 10mi
Dew Point: 48°   Wind: 10mph
Humidity: 36%   Direction: 250°WSW
Pressure: 29.85"   Gusts: 17mph
Location:  34.2096°N, 79.7279°W
Report Text: KFLO 211853Z 25009G15KT 10SM CLR 25/09 A2985 RMK AO2 SLP107 T02500089
Loading
Personal Weather Stations






























Interactive Weather Map
Tropical Storm Tracking
New forecast layout! Learn more

10-Day Weather Forecast

Advertisements
Track Severe Weather on mobile